createdAt,value
2023-02-09T00:01:14.821Z,2.20
2023-02-09T00:03:45.020Z,2.10
2023-02-09T00:06:15.759Z,2.00
2023-02-09T00:08:43.926Z,2.00
2023-02-09T00:11:14.515Z,1.90
2023-02-09T00:13:43.666Z,2.00
2023-02-09T00:16:11.981Z,2.00
2023-02-09T00:18:39.959Z,1.90
2023-02-09T00:21:10.857Z,1.80
2023-02-09T00:23:42.037Z,1.80
2023-02-09T00:26:12.844Z,1.70
2023-02-09T00:28:44.684Z,1.80
2023-02-09T00:31:14.284Z,1.70
2023-02-09T00:33:42.486Z,1.70
2023-02-09T00:36:13.922Z,1.70
2023-02-09T00:38:44.570Z,1.60
2023-02-09T00:41:13.487Z,1.60
2023-02-09T00:43:42.168Z,1.60
2023-02-09T00:46:10.947Z,1.70
2023-02-09T00:48:38.997Z,1.80
2023-02-09T00:51:07.542Z,1.80
2023-02-09T00:53:38.366Z,1.90
2023-02-09T00:56:08.257Z,1.70
2023-02-09T00:58:36.210Z,1.60
2023-02-09T01:01:04.336Z,1.60
2023-02-09T01:03:32.462Z,1.60
2023-02-09T01:06:00.903Z,1.60
2023-02-09T01:08:29.485Z,1.60
2023-02-09T01:10:58.899Z,1.60
2023-02-09T01:13:27.741Z,1.70
2023-02-09T01:15:57.259Z,1.70
2023-02-09T01:18:25.272Z,1.60
2023-02-09T01:20:53.343Z,1.50
2023-02-09T01:23:21.337Z,1.50
2023-02-09T01:25:49.345Z,1.60
2023-02-09T01:28:18.767Z,1.70
2023-02-09T01:30:47.218Z,1.70
2023-02-09T01:33:15.470Z,1.70
2023-02-09T01:35:43.533Z,1.60
2023-02-09T01:38:11.570Z,1.50
2023-02-09T01:40:39.641Z,1.40
2023-02-09T01:43:12.154Z,1.30
2023-02-09T01:45:45.804Z,1.40
2023-02-09T01:48:14.980Z,1.40
2023-02-09T01:50:46.848Z,1.40
2023-02-09T01:53:15.044Z,1.40
2023-02-09T01:55:49.080Z,1.30
2023-02-09T01:58:20.313Z,1.30
2023-02-09T02:00:50.192Z,1.30
2023-02-09T02:03:22.216Z,1.30
2023-02-09T02:05:54.682Z,1.20
2023-02-09T02:08:27.937Z,1.20
2023-02-09T02:10:56.138Z,1.30
2023-02-09T02:13:24.386Z,1.30
2023-02-09T02:16:02.933Z,1.30
2023-02-09T02:18:51.108Z,1.40
2023-02-09T02:21:59.226Z,1.40
2023-02-09T02:24:52.494Z,1.40
2023-02-09T02:27:31.729Z,1.40
2023-02-09T02:30:29.742Z,1.30
2023-02-09T02:33:11.084Z,1.30
2023-02-09T02:35:44.070Z,1.40
2023-02-09T02:38:20.110Z,1.50
2023-02-09T02:40:57.935Z,1.40
2023-02-09T02:43:40.758Z,1.40
2023-02-09T02:46:15.427Z,1.40
2023-02-09T02:48:48.693Z,1.40
2023-02-09T02:51:21.848Z,1.40
2023-02-09T02:53:56.516Z,1.40
2023-02-09T02:56:27.592Z,1.30
2023-02-09T02:58:59.355Z,1.30
2023-02-09T03:01:34.060Z,1.30
2023-02-09T03:04:06.257Z,1.20
2023-02-09T03:06:36.139Z,1.20
2023-02-09T03:09:04.476Z,1.20
2023-02-09T03:11:37.064Z,1.20
2023-02-09T03:14:28.558Z,1.20
2023-02-09T03:21:00.031Z,1.10
2023-02-09T03:23:33.934Z,1.20
2023-02-09T03:26:08.419Z,1.20
2023-02-09T03:28:40.352Z,1.30
2023-02-09T03:31:09.448Z,1.20
2023-02-09T03:33:39.501Z,1.20
2023-02-09T03:36:15.992Z,1.20
2023-02-09T03:38:44.193Z,1.20
2023-02-09T03:41:12.232Z,1.20
2023-02-09T03:43:54.137Z,1.20
2023-02-09T03:46:22.229Z,1.10
2023-02-09T03:48:50.990Z,1.10
2023-02-09T03:51:20.339Z,1.10
2023-02-09T03:53:48.342Z,1.10
2023-02-09T03:56:16.363Z,1.10
2023-02-09T03:58:44.368Z,1.00
2023-02-09T04:01:12.796Z,1.10
2023-02-09T04:03:40.901Z,1.00
2023-02-09T04:06:09.894Z,1.00
2023-02-09T04:08:39.636Z,1.00
2023-02-09T04:11:07.853Z,1.00
2023-02-09T04:13:35.890Z,0.90
2023-02-09T04:16:03.981Z,0.90
2023-02-09T04:18:32.008Z,0.90
2023-02-09T04:21:00.069Z,0.90
2023-02-09T04:23:28.306Z,0.90
2023-02-09T04:25:57.752Z,0.90
2023-02-09T04:28:25.878Z,0.90
2023-02-09T04:30:54.847Z,0.90
2023-02-09T04:33:23.492Z,0.90
2023-02-09T04:35:51.980Z,0.90
2023-02-09T04:38:21.447Z,0.80
2023-02-09T04:40:50.082Z,0.80
2023-02-09T04:43:19.775Z,0.90
2023-02-09T04:45:47.999Z,0.90
2023-02-09T04:48:18.528Z,0.90
2023-02-09T04:50:47.436Z,0.90
2023-02-09T04:53:16.208Z,0.80
2023-02-09T04:55:45.838Z,0.80
2023-02-09T04:58:33.518Z,0.70
2023-02-09T05:01:03.929Z,0.80
2023-02-09T05:03:32.058Z,0.70
2023-02-09T05:06:02.374Z,0.70
2023-02-09T05:08:30.974Z,0.70
2023-02-09T05:10:59.656Z,0.60
2023-02-09T05:13:27.952Z,0.70
2023-02-09T05:15:56.184Z,0.70
2023-02-09T05:18:25.912Z,0.70
2023-02-09T05:20:54.118Z,0.70
2023-02-09T05:23:22.122Z,0.70
2023-02-09T05:25:50.093Z,0.80
2023-02-09T05:28:18.075Z,0.60
2023-02-09T05:30:46.398Z,0.60
2023-02-09T05:33:14.613Z,0.60
2023-02-09T05:35:43.935Z,0.60
2023-02-09T05:38:11.978Z,0.60
2023-02-09T05:40:40.315Z,0.60
2023-02-09T05:43:08.347Z,0.60
2023-02-09T05:45:36.411Z,0.60
2023-02-09T05:48:04.485Z,0.60
2023-02-09T05:50:32.594Z,0.60
2023-02-09T05:53:09.122Z,0.60
2023-02-09T05:55:37.194Z,0.50
2023-02-09T05:58:05.475Z,0.50
2023-02-09T06:00:33.471Z,0.60
2023-02-09T06:03:01.511Z,0.60
2023-02-09T06:05:30.084Z,0.60
2023-02-09T06:07:58.905Z,0.50
2023-02-09T06:10:28.314Z,0.50
2023-02-09T06:12:56.368Z,0.60
2023-02-09T06:15:24.442Z,0.60
2023-02-09T06:17:52.478Z,0.50
2023-02-09T06:20:20.631Z,0.50
2023-02-09T06:22:48.656Z,0.50
2023-02-09T06:25:16.896Z,0.40
2023-02-09T06:27:46.449Z,0.40
2023-02-09T06:30:15.107Z,0.40
2023-02-09T06:32:43.172Z,0.40
2023-02-09T06:35:11.205Z,0.30
2023-02-09T06:37:39.156Z,0.40
2023-02-09T06:40:07.818Z,0.30
2023-02-09T06:42:44.576Z,0.30
2023-02-09T06:45:15.392Z,0.30
2023-02-09T06:47:44.030Z,0.30
2023-02-09T06:50:13.070Z,0.30
2023-02-09T06:52:41.180Z,0.30
2023-02-09T06:55:09.553Z,0.30
2023-02-09T06:57:37.789Z,0.30
2023-02-09T07:00:07.868Z,0.30
2023-02-09T07:02:37.353Z,0.30
2023-02-09T07:05:05.878Z,0.20
2023-02-09T07:07:33.935Z,0.20
2023-02-09T07:10:02.256Z,0.30
2023-02-09T07:12:30.286Z,0.30
2023-02-09T07:14:58.283Z,0.40
2023-02-09T07:17:26.360Z,0.40
2023-02-09T07:19:55.719Z,0.40
2023-02-09T07:22:23.832Z,0.40
2023-02-09T07:24:51.828Z,0.50
2023-02-09T07:27:20.622Z,0.60
2023-02-09T07:29:48.583Z,0.60
2023-02-09T07:32:16.626Z,0.70
2023-02-09T07:34:44.616Z,0.70
2023-02-09T07:37:14.029Z,0.70
2023-02-09T07:39:42.148Z,0.80
2023-02-09T07:42:10.286Z,0.80
2023-02-09T07:45:04.448Z,0.80
2023-02-09T07:47:32.441Z,0.90
2023-02-09T07:50:00.439Z,0.90
2023-02-09T07:52:29.838Z,1.00
2023-02-09T07:54:57.895Z,1.00
2023-02-09T07:57:27.460Z,1.00
2023-02-09T07:59:55.541Z,1.00
2023-02-09T08:02:29.524Z,1.10
2023-02-09T08:05:00.354Z,1.10
2023-02-09T08:07:30.093Z,1.30
2023-02-09T08:09:58.220Z,1.60
2023-02-09T08:12:42.753Z,1.90
2023-02-09T08:15:11.338Z,2.10
2023-02-09T08:17:39.498Z,2.30
2023-02-09T08:20:11.429Z,2.50
2023-02-09T08:22:46.569Z,2.60
2023-02-09T08:25:15.778Z,2.70
2023-02-09T08:27:45.118Z,2.80
2023-02-09T08:30:16.315Z,2.50
2023-02-09T08:32:44.440Z,2.30
2023-02-09T08:35:12.895Z,2.20
2023-02-09T08:37:42.263Z,2.10
2023-02-09T08:40:11.022Z,2.10
2023-02-09T08:42:39.106Z,2.10
2023-02-09T08:45:07.838Z,2.20
2023-02-09T08:47:35.881Z,2.20
2023-02-09T08:50:04.125Z,2.20
2023-02-09T08:52:32.131Z,2.20
2023-02-09T08:55:01.472Z,2.20
2023-02-09T08:57:43.045Z,2.30
2023-02-09T09:00:13.417Z,2.30
2023-02-09T09:02:41.417Z,2.40
2023-02-09T09:05:09.735Z,2.50
2023-02-09T09:07:37.810Z,2.60
2023-02-09T09:10:09.357Z,2.70
2023-02-09T09:12:38.288Z,2.70
2023-02-09T09:15:07.336Z,2.70
2023-02-09T09:17:35.332Z,2.80
2023-02-09T09:20:03.360Z,2.80
2023-02-09T09:22:31.394Z,2.80
2023-02-09T09:24:59.419Z,2.90
2023-02-09T09:27:28.968Z,2.90
2023-02-09T09:29:57.338Z,2.90
2023-02-09T09:32:25.562Z,2.90
2023-02-09T09:34:54.871Z,2.90
2023-02-09T09:37:23.088Z,3.00
2023-02-09T09:39:51.651Z,3.00
2023-02-09T09:42:25.704Z,3.10
2023-02-09T09:44:55.644Z,3.10
2023-02-09T09:47:32.793Z,3.30
2023-02-09T09:50:01.049Z,3.20
2023-02-09T09:52:33.089Z,3.30
2023-02-09T09:55:02.429Z,3.30
2023-02-09T09:57:32.278Z,3.40
2023-02-09T10:00:04.131Z,3.40
2023-02-09T10:02:35.025Z,3.40
2023-02-09T10:05:11.396Z,3.40
2023-02-09T10:07:44.399Z,3.40
2023-02-09T10:10:17.794Z,3.50
2023-02-09T10:12:49.672Z,3.50
2023-02-09T10:15:26.046Z,3.50
2023-02-09T10:17:54.141Z,3.60
2023-02-09T10:20:42.348Z,3.70
2023-02-09T10:23:17.740Z,3.80
2023-02-09T10:26:00.810Z,3.80
2023-02-09T10:28:30.649Z,3.90
2023-02-09T10:31:03.272Z,4.00
2023-02-09T10:33:40.338Z,4.10
2023-02-09T10:36:23.936Z,4.10
2023-02-09T10:38:52.975Z,4.20
2023-02-09T10:41:22.637Z,4.40
2023-02-09T10:43:53.466Z,4.40
2023-02-09T10:46:23.202Z,4.40
2023-02-09T10:48:51.231Z,4.50
2023-02-09T10:51:29.045Z,4.50
2023-02-09T10:54:03.388Z,4.50
2023-02-09T10:56:43.697Z,4.60
2023-02-09T10:59:19.382Z,4.60
2023-02-09T11:01:56.570Z,4.60
2023-02-09T11:04:26.802Z,4.70
2023-02-09T11:06:59.299Z,4.80
2023-02-09T11:09:30.278Z,4.80
2023-02-09T11:11:58.568Z,4.80
2023-02-09T11:14:26.947Z,4.80
2023-02-09T11:17:15.648Z,4.90
2023-02-09T11:20:02.479Z,4.90
2023-02-09T11:23:08.853Z,5.00
2023-02-09T11:25:40.139Z,5.00
2023-02-09T11:28:22.602Z,5.10
2023-02-09T11:31:03.736Z,5.20
2023-02-09T11:33:44.139Z,5.20
2023-02-09T11:36:26.193Z,5.30
2023-02-09T11:38:59.869Z,5.30
2023-02-09T11:41:49.144Z,5.20
2023-02-09T11:44:26.625Z,5.20
2023-02-09T11:47:04.285Z,5.30
2023-02-09T11:49:44.622Z,5.30
2023-02-09T11:52:17.778Z,5.40
2023-02-09T11:54:49.258Z,5.40
2023-02-09T11:57:28.074Z,5.50
2023-02-09T12:00:00.019Z,5.50
2023-02-09T12:02:46.095Z,5.50
2023-02-09T12:05:20.099Z,5.50
2023-02-09T12:08:09.926Z,5.50
2023-02-09T12:10:43.255Z,5.50
2023-02-09T12:13:27.600Z,5.60
2023-02-09T12:15:59.265Z,5.70
2023-02-09T12:18:29.199Z,5.80
2023-02-09T12:20:59.886Z,5.80
2023-02-09T12:23:32.860Z,5.80
2023-02-09T12:26:02.325Z,5.90
2023-02-09T12:28:43.514Z,6.00
2023-02-09T12:31:15.317Z,5.90
2023-02-09T12:34:11.616Z,6.00
2023-02-09T12:37:16.923Z,6.00
2023-02-09T12:40:18.351Z,6.10
2023-02-09T12:42:47.944Z,6.20
2023-02-09T12:45:35.533Z,6.30
2023-02-09T12:48:14.224Z,6.30
2023-02-09T12:50:52.196Z,6.30
2023-02-09T12:53:47.477Z,6.40
2023-02-09T12:56:33.430Z,6.50
2023-02-09T12:59:16.361Z,6.70
2023-02-09T13:02:15.975Z,6.90
2023-02-09T13:04:56.693Z,6.90
2023-02-09T13:07:34.136Z,6.90
2023-02-09T13:10:17.201Z,6.90
2023-02-09T13:12:50.279Z,6.90
2023-02-09T13:15:19.931Z,6.90
2023-02-09T13:18:01.708Z,7.00
2023-02-09T13:20:48.963Z,7.00
2023-02-09T13:23:41.043Z,7.10
2023-02-09T13:26:20.578Z,7.20
2023-02-09T13:28:48.682Z,7.30
2023-02-09T13:31:35.249Z,7.30
2023-02-09T13:34:16.256Z,7.30
2023-02-09T13:36:51.795Z,7.40
2023-02-09T13:39:25.688Z,7.50
2023-02-09T13:41:56.247Z,7.60
2023-02-09T13:44:26.735Z,7.40
2023-02-09T13:46:57.541Z,7.30
2023-02-09T13:49:27.926Z,7.40
2023-02-09T13:52:16.448Z,7.50
2023-02-09T13:54:44.973Z,7.40
2023-02-09T13:57:29.677Z,7.40
2023-02-09T14:00:03.864Z,7.40
2023-02-09T14:02:32.485Z,7.50
2023-02-09T14:05:02.895Z,7.50
2023-02-09T14:07:34.290Z,7.40
2023-02-09T14:10:06.365Z,7.50
2023-02-09T14:12:52.153Z,7.50
2023-02-09T14:15:39.421Z,7.60
2023-02-09T14:18:43.612Z,7.70
2023-02-09T14:21:44.351Z,7.80
2023-02-09T14:24:21.320Z,8.00
2023-02-09T14:26:52.993Z,8.10
2023-02-09T14:29:26.285Z,8.00
2023-02-09T14:31:56.157Z,7.90
2023-02-09T14:34:36.376Z,7.80
2023-02-09T14:37:26.592Z,7.70
2023-02-09T14:39:55.915Z,7.60
2023-02-09T14:42:24.784Z,7.50
2023-02-09T14:44:56.411Z,7.50
2023-02-09T14:47:38.574Z,7.50
2023-02-09T14:50:09.052Z,7.50
2023-02-09T14:52:38.917Z,7.40
2023-02-09T14:55:09.082Z,7.40
2023-02-09T14:57:39.429Z,7.30
2023-02-09T15:00:18.048Z,7.30
2023-02-09T15:02:46.712Z,7.30
2023-02-09T15:05:15.296Z,7.40
2023-02-09T15:07:45.291Z,7.40
2023-02-09T15:10:26.892Z,7.40
2023-02-09T15:12:56.141Z,7.30
2023-02-09T15:15:26.608Z,7.20
2023-02-09T15:17:55.704Z,7.20
2023-02-09T15:20:25.376Z,7.20
2023-02-09T15:22:53.808Z,7.20
2023-02-09T15:25:22.416Z,7.10
2023-02-09T15:27:52.528Z,7.10
2023-02-09T15:30:23.440Z,7.10
2023-02-09T15:32:53.477Z,7.00
2023-02-09T15:35:24.394Z,7.00
2023-02-09T15:37:54.645Z,6.90
2023-02-09T15:40:42.932Z,6.80
2023-02-09T15:43:30.986Z,6.80
2023-02-09T15:46:16.767Z,6.80
2023-02-09T15:48:46.234Z,6.80
2023-02-09T15:51:14.690Z,6.80
2023-02-09T15:53:43.610Z,6.70
2023-02-09T15:56:13.529Z,6.70
2023-02-09T15:58:44.289Z,6.70
2023-02-09T16:01:15.169Z,6.60
2023-02-09T16:03:43.409Z,6.70
2023-02-09T16:06:17.073Z,6.60
2023-02-09T16:08:46.684Z,6.50
2023-02-09T16:11:20.638Z,6.40
2023-02-09T16:13:48.921Z,6.40
2023-02-09T16:16:18.242Z,6.30
2023-02-09T16:18:47.003Z,6.20
2023-02-09T16:21:24.697Z,6.20
2023-02-09T16:23:55.572Z,6.20
2023-02-09T16:26:24.449Z,6.10
2023-02-09T16:28:53.295Z,6.10
2023-02-09T16:31:21.558Z,6.00
2023-02-09T16:33:50.522Z,6.00
2023-02-09T16:36:22.643Z,5.90
2023-02-09T16:38:50.762Z,5.90
2023-02-09T16:41:37.938Z,5.90
2023-02-09T16:44:16.412Z,5.80
2023-02-09T16:46:45.309Z,5.70
2023-02-09T16:49:28.599Z,5.70
2023-02-09T16:52:01.599Z,5.60
2023-02-09T16:54:30.715Z,5.60
2023-02-09T16:56:58.707Z,5.50
2023-02-09T16:59:26.910Z,5.50
2023-02-09T17:01:55.095Z,5.40
2023-02-09T17:04:23.278Z,5.40
2023-02-09T17:06:53.723Z,5.30
2023-02-09T17:09:23.093Z,5.30
2023-02-09T17:11:51.131Z,5.30
2023-02-09T17:14:19.156Z,5.20
2023-02-09T17:16:49.660Z,5.20
2023-02-09T17:19:19.072Z,5.20
2023-02-09T17:21:47.146Z,5.10
2023-02-09T17:24:17.691Z,5.10
2023-02-09T17:26:47.062Z,5.10
2023-02-09T17:29:17.711Z,5.00
2023-02-09T17:31:53.206Z,4.90
2023-02-09T17:34:27.073Z,4.90
2023-02-09T17:36:55.304Z,4.80
2023-02-09T17:39:23.312Z,4.70
2023-02-09T17:41:52.925Z,4.70
2023-02-09T17:44:43.341Z,4.70
2023-02-09T17:47:16.282Z,4.70
2023-02-09T17:49:44.364Z,4.70
2023-02-09T17:52:17.076Z,4.70
2023-02-09T17:54:45.470Z,4.60
2023-02-09T17:57:16.270Z,4.60
2023-02-09T17:59:45.995Z,4.50
2023-02-09T18:02:16.624Z,4.40
2023-02-09T18:04:44.999Z,4.40
2023-02-09T18:07:14.366Z,4.40
2023-02-09T18:09:42.404Z,4.30
2023-02-09T18:12:19.660Z,4.30
2023-02-09T18:14:47.756Z,4.30
2023-02-09T18:17:15.817Z,4.40
2023-02-09T18:19:43.819Z,4.30
2023-02-09T18:22:14.962Z,4.20
2023-02-09T18:24:43.097Z,4.20
2023-02-09T18:27:14.534Z,4.20
2023-02-09T18:29:44.041Z,4.20
2023-02-09T18:32:15.652Z,4.10
2023-02-09T18:34:43.784Z,4.10
2023-02-09T18:37:11.839Z,4.10
2023-02-09T18:39:45.896Z,4.20
2023-02-09T18:42:15.866Z,4.10
2023-02-09T18:44:45.338Z,4.00
2023-02-09T18:47:13.564Z,4.00
2023-02-09T18:49:41.615Z,3.90
2023-02-09T18:52:10.355Z,3.90
2023-02-09T18:54:38.358Z,3.90
2023-02-09T18:57:06.556Z,3.90
2023-02-09T18:59:34.598Z,3.90
2023-02-09T19:02:04.068Z,3.90
2023-02-09T19:04:32.177Z,3.90
2023-02-09T19:07:00.465Z,3.90
2023-02-09T19:09:28.499Z,3.90
2023-02-09T19:11:56.514Z,4.00
2023-02-09T19:14:39.727Z,4.00
2023-02-09T19:17:13.172Z,4.10
2023-02-09T19:19:41.516Z,4.10
2023-02-09T19:22:10.045Z,4.10
2023-02-09T19:24:38.162Z,4.10
2023-02-09T19:27:09.246Z,4.10
2023-02-09T19:29:41.109Z,4.20
2023-02-09T19:32:11.604Z,4.20
2023-02-09T19:34:40.967Z,4.20
2023-02-09T19:37:09.636Z,4.20
2023-02-09T19:39:38.739Z,4.20
2023-02-09T19:42:07.159Z,4.30
2023-02-09T19:44:36.659Z,4.20
2023-02-09T19:47:04.767Z,4.30
2023-02-09T19:49:34.468Z,4.20
2023-02-09T19:52:02.584Z,4.30
2023-02-09T19:54:30.558Z,4.30
2023-02-09T19:56:59.699Z,4.20
2023-02-09T19:59:27.879Z,4.20
2023-02-09T20:01:56.122Z,4.30
2023-02-09T20:04:24.366Z,4.30
2023-02-09T20:06:53.730Z,4.40
2023-02-09T20:09:21.909Z,4.40
2023-02-09T20:14:23.107Z,4.60
2023-02-09T20:16:53.242Z,4.60
2023-02-09T20:19:22.320Z,4.50
2023-02-09T20:21:50.581Z,4.50
2023-02-09T20:24:20.265Z,4.50
2023-02-09T20:26:48.489Z,4.50
2023-02-09T20:29:16.925Z,4.50
2023-02-09T20:31:45.297Z,4.50
2023-02-09T20:34:15.042Z,4.50
2023-02-09T20:36:45.578Z,4.50
2023-02-09T20:39:16.118Z,4.40
2023-02-09T20:42:00.964Z,4.40
2023-02-09T20:44:46.992Z,4.40
2023-02-09T20:47:15.343Z,4.50
2023-02-09T20:49:43.693Z,4.40
2023-02-09T20:52:12.078Z,4.40
2023-02-09T20:54:40.545Z,4.40
2023-02-09T20:57:10.521Z,4.40
2023-02-09T20:59:38.949Z,4.50
2023-02-09T21:02:07.148Z,4.50
2023-02-09T21:04:35.382Z,4.50
2023-02-09T21:07:04.203Z,4.60
2023-02-09T21:09:32.297Z,4.70
2023-02-09T21:12:00.519Z,4.70
2023-02-09T21:14:41.757Z,4.70
2023-02-09T21:17:11.125Z,4.70
2023-02-09T21:19:39.232Z,4.60
2023-02-09T21:22:07.598Z,4.60
2023-02-09T21:24:37.432Z,4.50
2023-02-09T21:27:06.582Z,4.50
2023-02-09T21:29:36.762Z,4.50
2023-02-09T21:32:06.848Z,4.40
2023-02-09T21:34:35.022Z,4.40
2023-02-09T21:37:03.063Z,4.40
2023-02-09T21:39:31.475Z,4.30
2023-02-09T21:42:17.215Z,4.30
2023-02-09T21:44:46.676Z,4.30
2023-02-09T21:47:14.648Z,4.30
2023-02-09T21:49:42.815Z,4.30
2023-02-09T21:52:10.844Z,4.30
2023-02-09T21:54:40.892Z,4.30
2023-02-09T21:57:08.989Z,4.30
2023-02-09T21:59:37.160Z,4.30
2023-02-09T22:02:06.528Z,4.30
2023-02-09T22:04:34.948Z,4.30
2023-02-09T22:07:03.126Z,4.30
2023-02-09T22:09:31.222Z,4.30
2023-02-09T22:11:59.242Z,4.20
2023-02-09T22:14:28.693Z,4.20
2023-02-09T22:16:57.326Z,4.20
2023-02-09T22:19:27.346Z,4.20
2023-02-09T22:21:57.637Z,4.30
2023-02-09T22:24:26.478Z,4.30
2023-02-09T22:26:54.999Z,4.30
2023-02-09T22:29:23.072Z,4.30
2023-02-09T22:31:51.199Z,4.30
2023-02-09T22:34:19.205Z,4.30
2023-02-09T22:36:52.248Z,4.40
2023-02-09T22:39:20.829Z,4.40
2023-02-09T22:41:48.934Z,4.40
2023-02-09T22:44:18.364Z,4.30
2023-02-09T22:46:47.226Z,4.30
2023-02-09T22:49:18.342Z,4.40
2023-02-09T22:51:49.209Z,4.40
2023-02-09T22:54:19.745Z,4.40
2023-02-09T22:56:48.196Z,4.40
2023-02-09T22:59:16.740Z,4.40
2023-02-09T23:01:45.316Z,4.40
2023-02-09T23:04:13.493Z,4.40
2023-02-09T23:06:41.714Z,4.40
2023-02-09T23:09:12.977Z,4.40
2023-02-09T23:11:41.237Z,4.40
2023-02-09T23:14:10.818Z,4.30
2023-02-09T23:16:40.564Z,4.30
2023-02-09T23:19:10.938Z,4.40
2023-02-09T23:21:40.663Z,4.30
2023-02-09T23:24:11.163Z,4.30
2023-02-09T23:26:39.864Z,4.40
2023-02-09T23:29:10.833Z,4.40
2023-02-09T23:31:39.502Z,4.40
2023-02-09T23:34:07.519Z,4.40
2023-02-09T23:36:36.073Z,4.40
2023-02-09T23:39:06.219Z,4.40
2023-02-09T23:41:36.304Z,4.40
2023-02-09T23:44:04.861Z,4.40
2023-02-09T23:46:33.002Z,4.40
2023-02-09T23:49:01.255Z,4.40
2023-02-09T23:51:30.774Z,4.50
2023-02-09T23:54:00.391Z,4.50
2023-02-09T23:56:29.895Z,4.50
2023-02-09T23:58:59.406Z,4.50
